• Join FlightAware (Why Join?)
  • Login
  • US Flag 
06:00AM EDT


 

Airport Tracker/Info


-or-


 

Live Flight TrackerFlight Track Log ✈ AAL993 ✈ 13-Aug-2014 ✈ KMIA - MNMG / MGA

Flight Track Log - Related Links

Times and Time Zones

All times are in EDT time to prevent confusion due to time zone crossing. See the AAL993 flight status page for this flight to view local times or setup timezone preferences in your user account.

Time Position Orientation Groundspeed Altitude Reporting Facility
EDT Latitude Longitude Course Direction KTS MPH feet Rate Location/Type
06:51PM 25.7856 -80.3219 207° Southwest 174 200 1,100  Level Miami Center
06:51PM 25.7850 -80.3317 266° West 176 203 1,400 1,380 Climbing Miami Center
06:52PM 25.7814 -80.3950 266° West 211 243 2,800 1,980 Climbing Miami Center
06:53PM 25.7142 -80.4250 202° Southwest 252 290 5,500 2,520 Climbing Miami Center
06:54PM 25.5478 -80.2598 209° Southwest  Level FlightAware Approximate
06:54PM 25.6381 -80.4367 188° South 273 314 8,000  Level Miami Center
06:55PM 25.4453 -80.3238 209° Southwest  Level FlightAware Approximate
06:55PM 25.5583 -80.4469 187° South 285 328 10,400  Level Miami Center
06:56PM 25.3426 -80.3876 207° Southwest  Level FlightAware Approximate
06:56PM 25.4608 -80.4608 187° South 327 376 11,900  Level Miami Center
06:57PM 25.3706 -80.4719 186° South 354 407 14,200 2,220 Climbing Miami Center
06:58PM 25.2708 -80.4939 191° South 364 419 16,500 2,160 Climbing Miami Center
06:59PM 25.1725 -80.5381 202° Southwest 380 437 18,700 2,040 Climbing Miami Center
07:00PM 25.0706 -80.5814 201° Southwest 387 445 20,800 2,040 Climbing Miami Center
07:02PM 24.9444 -80.6361 201° Southwest 403 464 23,000 1,860 Climbing Miami Center
07:03PM 24.8353 -80.6817 201° Southwest 413 475 24,700 1,620 Climbing Miami Center
07:04PM 24.7256 -80.7317 202° Southwest 419 482 26,400 1,500 Climbing Miami Center
07:05PM 24.6125 -80.7789 201° Southwest 431 496 27,800 1,260 Climbing Miami Center
07:06PM 24.4967 -80.8283 201° Southwest 443 510 29,000 1,080 Climbing Miami Center
07:07PM 24.3778 -80.8789 201° Southwest 453 521 30,100 1,260 Climbing Miami Center
07:08PM 24.2525 -80.9339 202° Southwest 460 529 31,600 1,500 Climbing Miami Center
07:09PM 24.1408 -80.9819 201° Southwest 457 526 33,200 1,560 Climbing Miami Center
07:10PM 23.9997 -81.0403 201° Southwest 451 519 34,900 1,620 Climbing Miami Center
07:12PM 23.8050 -81.1315 203° Southwest  Level Estimated
07:19PM 23.0327 -81.4436 200° South  Level FlightAware Approximate
07:20PM 22.9179 -81.4970 196° South  Level Estimated
07:21PM 22.7976 -81.5335 196° South  Level FlightAware Approximate
07:22PM 22.6773 -81.5698 196° South  Level FlightAware Approximate
07:23PM 22.5571 -81.6061 196° South  Level FlightAware Approximate
07:24PM 22.4367 -81.6424 196° South  Level FlightAware Approximate
07:25PM 22.3164 -81.6785 196° South  Level FlightAware Approximate
07:26PM 22.1961 -81.7147 196° South  Level FlightAware Approximate
07:27PM 22.0758 -81.7507 196° South  Level FlightAware Approximate
07:28PM 21.9614 -81.8049 197° South  Level Estimated
07:29PM 21.8418 -81.8436 197° South  Level FlightAware Approximate
07:30PM 21.7222 -81.8822 197° South  Level FlightAware Approximate
07:31PM 21.6026 -81.9208 197° South  Level FlightAware Approximate
07:32PM 21.4829 -81.9593 197° South  Level FlightAware Approximate
07:33PM 21.3633 -81.9978 197° South  Level FlightAware Approximate
07:34PM 21.2437 -82.0362 197° South  Level FlightAware Approximate
07:35PM 21.1240 -82.0745 197° South  Level FlightAware Approximate
07:36PM 21.0043 -82.1128 197° South  Level FlightAware Approximate
07:37PM 20.8846 -82.1510 197° South  Level FlightAware Approximate
07:38PM 20.7650 -82.1892 197° South  Level FlightAware Approximate
07:39PM 20.6453 -82.2273 197° South  Level FlightAware Approximate
07:40PM 20.5256 -82.2653 197° South  Level FlightAware Approximate
07:41PM 20.4059 -82.3033 197° South  Level FlightAware Approximate
07:42PM 20.2861 -82.3412 197° South  Level FlightAware Approximate
07:43PM 20.1664 -82.3790 197° South  Level FlightAware Approximate
07:44PM 20.0532 -82.4351 205° Southwest  Level Estimated
07:45PM 19.9399 -82.4911 205° Southwest  Level FlightAware Approximate
07:46PM 19.8267 -82.5470 205° Southwest  Level FlightAware Approximate
07:47PM 19.7134 -82.6028 205° Southwest  Level FlightAware Approximate
07:48PM 19.6000 -82.6585 205° Southwest  Level FlightAware Approximate
07:49PM 19.4867 -82.7142 205° Southwest  Level FlightAware Approximate
07:50PM 19.3734 -82.7698 205° Southwest  Level FlightAware Approximate
07:51PM 19.2600 -82.8253 205° Southwest  Level FlightAware Approximate
07:52PM 19.1466 -82.8807 205° Southwest  Level FlightAware Approximate
07:53PM 19.0332 -82.9361 205° Southwest  Level FlightAware Approximate
07:54PM 18.9198 -82.9914 205° Southwest  Level FlightAware Approximate
07:55PM 18.8064 -83.0466 205° Southwest  Level FlightAware Approximate
07:56PM 18.6929 -83.1017 205° Southwest  Level FlightAware Approximate
07:57PM 18.5795 -83.1568 205° Southwest  Level FlightAware Approximate
07:58PM 18.4660 -83.2117 205° Southwest  Level FlightAware Approximate
07:59PM 18.3525 -83.2666 205° Southwest  Level FlightAware Approximate
08:00PM 18.2390 -83.3215 205° Southwest  Level FlightAware Approximate
08:01PM 18.1254 -83.3763 205° Southwest  Level FlightAware Approximate
08:02PM 18.0119 -83.4309 205° Southwest  Level FlightAware Approximate
08:03PM 17.8983 -83.4856 205° Southwest  Level FlightAware Approximate
08:04PM 17.7848 -83.5401 205° Southwest  Level FlightAware Approximate
08:05PM 17.6712 -83.5946 205° Southwest  Level FlightAware Approximate
08:06PM 17.5576 -83.6490 205° Southwest  Level FlightAware Approximate
08:07PM 17.4440 -83.7034 205° Southwest  Level FlightAware Approximate
08:08PM 17.3303 -83.7577 205° Southwest  Level FlightAware Approximate
08:09PM 17.2167 -83.8119 204° Southwest  Level FlightAware Approximate
08:10PM 17.1030 -83.8660 204° Southwest  Level FlightAware Approximate
08:11PM 16.9838 -83.9234 205° Southwest  Level FlightAware Approximate
08:12PM 16.8704 -83.9781 205° Southwest  Level FlightAware Approximate
08:13PM 16.7570 -84.0327 205° Southwest  Level FlightAware Approximate
08:14PM 16.6436 -84.0873 205° Southwest  Level FlightAware Approximate
08:15PM 16.5302 -84.1418 205° Southwest  Level FlightAware Approximate
08:16PM 16.4167 -84.1962 205° Southwest  Level FlightAware Approximate
08:17PM 16.3033 -84.2506 205° Southwest  Level FlightAware Approximate
08:18PM 16.1898 -84.3049 205° Southwest  Level FlightAware Approximate
08:19PM 16.0763 -84.3592 205° Southwest  Level FlightAware Approximate
08:20PM 15.9628 -84.4134 205° Southwest  Level FlightAware Approximate
08:21PM 15.8493 -84.4675 205° Southwest  Level FlightAware Approximate
08:22PM 15.7358 -84.5216 205° Southwest  Level FlightAware Approximate
08:23PM 15.6222 -84.5756 205° Southwest  Level FlightAware Approximate
08:24PM 15.5087 -84.6295 205° Southwest  Level FlightAware Approximate
08:25PM 15.3951 -84.6834 205° Southwest  Level FlightAware Approximate
08:26PM 15.2815 -84.7373 205° Southwest  Level FlightAware Approximate
08:27PM 15.1679 -84.7910 205° Southwest  Level FlightAware Approximate
08:28PM 15.0543 -84.8447 205° Southwest  Level FlightAware Approximate
08:29PM 14.9407 -84.8984 205° Southwest  Level FlightAware Approximate
08:30PM 14.8275 -84.9529 206° Southwest  Level FlightAware Approximate
08:31PM 14.7151 -85.0092 206° Southwest  Level FlightAware Approximate
08:32PM 14.6026 -85.0654 206° Southwest  Level FlightAware Approximate
08:33PM 14.4887 -85.1179 201° Southwest  Level FlightAware Approximate
08:34PM 14.3722 -85.1645 201° Southwest  Level FlightAware Approximate
08:35PM 14.2589 -85.2185 205° Southwest  Level FlightAware Approximate
08:36PM 14.1456 -85.2729 205° Southwest  Level FlightAware Approximate
08:37PM 14.0324 -85.3272 205° Southwest  Level FlightAware Approximate
08:38PM 13.9194 -85.3820 206° Southwest  Level FlightAware Approximate
08:39PM 13.8071 -85.4381 206° Southwest  Level FlightAware Approximate
08:40PM 13.6923 -85.4883 200° South  Level FlightAware Approximate
08:41PM 13.5767 -85.5367 206° Southwest  Level FlightAware Approximate
08:42PM 13.4644 -85.5928 206° Southwest  Level FlightAware Approximate
08:43PM 13.3521 -85.6489 206° Southwest  Level FlightAware Approximate
08:44PM 13.2375 -85.7000 203° Southwest  Level FlightAware Approximate
08:45PM 13.1229 -85.7510 203° Southwest  Level FlightAware Approximate
08:46PM 13.0077 -85.8003 201° Southwest  Level FlightAware Approximate
08:47PM 12.8913 -85.8468 201° Southwest  Level FlightAware Approximate
08:48PM 12.7766 -85.8974 203° Southwest  Level FlightAware Approximate
08:49PM 12.6614 -85.9467 202° Southwest  Level FlightAware Approximate
08:50PM 12.5457 -85.9949 202° Southwest  Level FlightAware Approximate
08:51PM 12.4294 -86.0416 201° Southwest  Level FlightAware Approximate
08:52PM 12.3131 -86.0869 224° Southwest  Level FlightAware Approximate
08:53PM 12.2001 -86.1375 194° South  Level FlightAware Approximate
08:54PM 12.1500 -86.1500 194° South  Level FlightAware Approximate
08:55PM 12.1415 -86.1682 194° South  Level Estimated
08:56PM 12.1415 -86.1682 194° South  Level Estimated
08:57PM 12.1415 -86.1682 194° South  Level Estimated
08:58PM 12.1415 -86.1682 194° South  Level Estimated
08:59PM 12.1415 -86.1682 194° South  Level Estimated
09:00PM 12.1415 -86.1682 194° South  Level Estimated
09:01PM 12.1415 -86.1682 194° South  Level Estimated
09:02PM 12.1415 -86.1682 194° South  Level Estimated
09:03PM 12.1415 -86.1682 194° South  Level Estimated
09:04PM 12.1415 -86.1682 194° South  Level Estimated
09:05PM 12.1415 -86.1682 194° South  Level Estimated
09:06PM 12.1415 -86.1682 194° South  Level Estimated